createdAt,value
2022-09-05T00:03:03.373Z,12.75
2022-09-05T00:07:31.108Z,12.71
2022-09-05T00:11:41.523Z,12.67
2022-09-05T00:15:50.885Z,12.67
2022-09-05T00:24:21.282Z,12.62
2022-09-05T00:24:29.816Z,12.58
2022-09-05T00:28:44.081Z,12.53
2022-09-05T00:32:52.891Z,12.42
2022-09-05T00:36:54.489Z,12.33
2022-09-05T00:40:44.362Z,12.26
2022-09-05T00:45:02.995Z,12.18
2022-09-05T00:49:26.083Z,12.12
2022-09-05T00:53:18.800Z,12.06
2022-09-05T00:57:08.929Z,12.00
2022-09-05T01:00:58.920Z,11.93
2022-09-05T01:04:59.959Z,11.84
2022-09-05T01:09:28.024Z,11.80
2022-09-05T01:13:19.837Z,11.77
2022-09-05T01:17:48.442Z,11.78
2022-09-05T01:21:52.312Z,11.77
2022-09-05T01:25:55.324Z,11.73
2022-09-05T01:29:46.727Z,11.66
2022-09-05T01:33:43.287Z,11.59
2022-09-05T01:37:57.680Z,11.55
2022-09-05T01:42:25.641Z,11.57
2022-09-05T01:46:49.936Z,11.61
2022-09-05T01:50:48.402Z,11.57
2022-09-05T01:54:53.043Z,11.51
2022-09-05T01:58:44.796Z,11.46
2022-09-05T02:02:50.074Z,11.44
2022-09-05T02:06:35.095Z,11.45
2022-09-05T02:10:47.755Z,11.50
2022-09-05T02:15:04.949Z,11.54
2022-09-05T02:19:09.315Z,11.54
2022-09-05T02:23:38.934Z,11.49
2022-09-05T02:28:05.468Z,11.44
2022-09-05T02:31:50.621Z,11.39
2022-09-05T02:35:42.751Z,11.39
2022-09-05T02:45:02.059Z,11.42
2022-09-05T02:45:08.709Z,11.41
2022-09-05T02:48:48.960Z,11.38
2022-09-05T02:57:27.751Z,11.32
2022-09-05T02:57:35.417Z,11.21
2022-09-05T03:01:30.464Z,11.13
2022-09-05T03:05:31.681Z,11.07
2022-09-05T03:09:33.276Z,11.02
2022-09-05T03:14:01.009Z,11.01
2022-09-05T03:18:20.091Z,11.02
2022-09-05T03:22:52.803Z,11.01
2022-09-05T03:26:58.053Z,10.91
2022-09-05T03:30:57.927Z,10.75
2022-09-05T03:35:07.759Z,10.65
2022-09-05T03:38:48.937Z,10.62
2022-09-05T03:42:43.936Z,10.52
2022-09-05T03:46:41.052Z,10.48
2022-09-05T03:57:04.378Z,10.34
2022-09-05T03:57:12.203Z,10.17
2022-09-05T03:59:40.315Z,10.02
2022-09-05T04:08:08.148Z,9.90
2022-09-05T04:08:31.819Z,9.80
2022-09-05T04:12:56.467Z,9.75
2022-09-05T04:17:02.715Z,9.72
2022-09-05T04:20:52.069Z,9.65
2022-09-05T04:25:13.944Z,9.62
2022-09-05T04:29:28.509Z,9.50
2022-09-05T04:33:38.403Z,9.41
2022-09-05T04:37:47.801Z,9.33
2022-09-05T04:41:39.320Z,9.30
2022-09-05T04:45:45.041Z,9.32
2022-09-05T04:49:34.243Z,9.36
2022-09-05T04:53:49.370Z,9.40
2022-09-05T04:58:02.047Z,9.40
2022-09-05T05:06:13.898Z,9.40
2022-09-05T05:06:31.764Z,9.45
2022-09-05T05:13:37.664Z,9.59
2022-09-05T05:18:00.929Z,9.71
2022-09-05T05:19:02.927Z,9.87
2022-09-05T05:23:07.558Z,10.08
2022-09-05T05:27:04.237Z,10.28
2022-09-05T05:31:16.312Z,10.42
2022-09-05T05:35:20.574Z,10.54
2022-09-05T05:39:14.329Z,10.68
2022-09-05T05:43:16.861Z,10.84
2022-09-05T05:47:16.424Z,11.01
2022-09-05T05:51:11.494Z,11.20
2022-09-05T05:55:24.328Z,11.35
2022-09-05T05:59:36.291Z,11.50
2022-09-05T06:04:01.451Z,11.64
2022-09-05T06:14:51.883Z,11.81
2022-09-05T06:14:54.847Z,12.00
2022-09-05T06:17:08.330Z,12.21
2022-09-05T06:22:08.368Z,12.36
2022-09-05T06:25:51.077Z,12.54
2022-09-05T06:30:02.464Z,12.68
2022-09-05T06:34:08.105Z,12.81
2022-09-05T06:38:22.101Z,12.96
2022-09-05T06:42:40.622Z,13.13
2022-09-05T06:46:55.211Z,13.33
2022-09-05T06:51:23.380Z,13.51
2022-09-05T06:55:10.025Z,13.64
2022-09-05T06:59:30.247Z,13.76
2022-09-05T07:04:33.394Z,13.87
2022-09-05T07:08:57.882Z,13.97
2022-09-05T07:12:49.051Z,14.09
2022-09-05T07:16:44.149Z,14.23
2022-09-05T07:21:18.347Z,14.38
2022-09-05T07:25:22.263Z,14.53
2022-09-05T07:29:34.035Z,14.67
2022-09-05T07:33:20.355Z,14.83
2022-09-05T07:37:28.144Z,15.00
2022-09-05T07:41:24.261Z,15.17
2022-09-05T07:45:22.349Z,15.34
2022-09-05T07:49:27.478Z,15.51
2022-09-05T07:56:51.146Z,15.63
2022-09-05T07:57:59.144Z,15.71
2022-09-05T08:02:00.464Z,15.86
2022-09-05T08:06:05.759Z,16.03
2022-09-05T08:10:08.391Z,16.19
2022-09-05T08:14:23.501Z,16.32
2022-09-05T08:18:19.130Z,16.52
2022-09-05T08:22:02.225Z,16.66
2022-09-05T08:26:20.554Z,16.82
2022-09-05T08:30:25.718Z,16.96
2022-09-05T08:34:18.625Z,17.10
2022-09-05T08:38:40.409Z,17.21
2022-09-05T08:42:34.899Z,17.37
2022-09-05T08:46:50.336Z,17.45
2022-09-05T08:51:09.418Z,17.60
2022-09-05T08:55:13.222Z,17.66
2022-09-05T09:00:19.335Z,17.75
2022-09-05T09:04:29.792Z,17.97
2022-09-05T09:08:35.273Z,18.11
2022-09-05T09:12:30.123Z,18.21
2022-09-05T09:17:01.573Z,18.34
2022-09-05T09:20:54.104Z,18.46
2022-09-05T09:24:47.044Z,18.71
2022-09-05T09:28:53.544Z,18.88
2022-09-05T09:32:50.001Z,19.00
2022-09-05T09:37:02.455Z,19.26
2022-09-05T09:41:13.298Z,19.46
2022-09-05T09:45:52.593Z,19.41
2022-09-05T09:49:39.842Z,19.58
2022-09-05T09:53:42.885Z,19.59
2022-09-05T09:57:57.779Z,19.38
2022-09-05T10:02:00.938Z,19.10
2022-09-05T10:10:49.217Z,19.16
2022-09-05T10:11:25.825Z,19.34
2022-09-05T10:15:30.726Z,19.45
2022-09-05T10:23:52.670Z,19.68
2022-09-05T10:28:09.008Z,19.75
2022-09-05T10:35:19.838Z,19.66
2022-09-05T10:36:24.681Z,19.74
2022-09-05T10:40:10.197Z,19.77
2022-09-05T10:44:01.414Z,19.74
2022-09-05T10:47:54.357Z,19.86
2022-09-05T10:52:04.056Z,20.11
2022-09-05T10:56:13.345Z,20.34
2022-09-05T11:02:22.694Z,20.21
2022-09-05T11:05:07.477Z,19.90
2022-09-05T11:09:14.380Z,20.00
2022-09-05T11:13:20.455Z,20.05
2022-09-05T11:17:26.687Z,20.24
2022-09-05T11:21:29.289Z,20.44
2022-09-05T11:25:36.905Z,20.32
2022-09-05T11:29:25.307Z,20.26
2022-09-05T11:39:46.769Z,20.63
2022-09-05T11:40:08.285Z,21.07
2022-09-05T11:42:04.140Z,21.60
2022-09-05T11:45:59.704Z,22.02
2022-09-05T11:50:09.293Z,22.11
2022-09-05T11:53:52.987Z,22.18
2022-09-05T11:58:43.244Z,22.46
2022-09-05T12:02:32.784Z,22.87
2022-09-05T12:06:47.967Z,23.13
2022-09-05T12:15:11.975Z,23.53
2022-09-05T12:19:39.002Z,23.54
2022-09-05T12:25:15.975Z,23.64
2022-09-05T12:29:26.305Z,23.93
2022-09-05T12:35:19.772Z,24.32
2022-09-05T12:40:54.274Z,24.38
2022-09-05T12:41:41.045Z,23.23
2022-09-05T12:41:44.797Z,23.98
2022-09-05T12:45:41.679Z,23.41
2022-09-05T12:49:38.815Z,23.42
2022-09-05T12:53:59.983Z,23.91
2022-09-05T13:02:57.873Z,24.49
2022-09-05T13:03:09.851Z,24.83
2022-09-05T13:06:21.372Z,25.22
2022-09-05T13:14:49.601Z,24.75
2022-09-05T13:15:06.008Z,24.46
2022-09-05T13:18:53.215Z,24.55
2022-09-05T13:22:38.557Z,24.67
2022-09-05T13:26:51.329Z,24.91
2022-09-05T13:34:37.781Z,25.31
2022-09-05T13:37:58.604Z,25.44
2022-09-05T13:39:10.286Z,25.54
2022-09-05T13:43:15.048Z,25.81
2022-09-05T13:46:59.132Z,26.05
2022-09-05T13:50:47.578Z,26.25
2022-09-05T13:54:54.502Z,26.43
2022-09-05T13:58:56.451Z,26.84
2022-09-05T14:07:46.168Z,27.24
2022-09-05T14:11:45.344Z,27.65
2022-09-05T14:15:54.554Z,28.17
2022-09-05T14:20:14.195Z,29.12
2022-09-05T14:24:03.400Z,30.10
2022-09-05T14:27:48.090Z,30.49
2022-09-05T14:36:00.501Z,31.07
2022-09-05T14:37:48.479Z,31.64
2022-09-05T14:39:20.667Z,31.92
2022-09-05T14:42:47.673Z,31.70
2022-09-05T14:46:38.776Z,31.74
2022-09-05T14:50:03.635Z,31.64
2022-09-05T15:02:38.797Z,31.77
2022-09-05T15:02:47.949Z,31.88
2022-09-05T15:05:14.447Z,32.07
2022-09-05T15:12:19.689Z,32.29
2022-09-05T15:13:09.744Z,31.80
2022-09-05T15:16:38.718Z,31.48
2022-09-05T15:20:10.036Z,30.88
2022-09-05T15:23:56.586Z,30.17
2022-09-05T15:27:27.382Z,29.30
2022-09-05T15:31:04.470Z,28.58
2022-09-05T15:34:36.355Z,27.85
2022-09-05T15:38:31.367Z,27.12
2022-09-05T15:42:20.372Z,26.46
2022-09-05T15:46:04.520Z,25.76
2022-09-05T15:49:51.303Z,25.13
2022-09-05T15:53:36.367Z,24.61
2022-09-05T15:57:06.083Z,24.17
2022-09-05T16:00:51.445Z,23.70
2022-09-05T16:08:29.404Z,23.38
2022-09-05T16:10:34.370Z,23.09
2022-09-05T16:12:14.393Z,22.72
2022-09-05T16:23:13.708Z,22.38
2022-09-05T16:23:34.264Z,22.07
2022-09-05T16:23:43.715Z,21.89
2022-09-05T16:27:09.447Z,21.83
2022-09-05T16:30:43.914Z,21.70
2022-09-05T16:34:31.607Z,21.55
2022-09-05T16:38:08.855Z,21.41
2022-09-05T16:41:49.780Z,21.19
2022-09-05T16:45:39.425Z,20.96
2022-09-05T16:49:11.890Z,20.64
2022-09-05T16:52:53.544Z,20.24
2022-09-05T16:56:24.912Z,19.86
2022-09-05T16:59:55.209Z,19.51
2022-09-05T17:04:21.897Z,19.09
2022-09-05T17:08:14.324Z,18.61
2022-09-05T17:11:45.858Z,18.28
2022-09-05T17:15:35.524Z,17.91
2022-09-05T17:19:23.878Z,17.63
2022-09-05T17:29:15.649Z,17.38
2022-09-05T17:29:34.487Z,17.16
2022-09-05T17:34:54.920Z,16.77
2022-09-05T17:38:36.813Z,16.64
2022-09-05T17:42:14.659Z,16.54
2022-09-05T17:46:14.029Z,16.43
2022-09-05T17:49:45.568Z,16.35
2022-09-05T17:54:07.367Z,16.27
2022-09-05T17:57:50.459Z,16.19
2022-09-05T18:01:19.454Z,16.09
2022-09-05T18:04:51.646Z,15.97
2022-09-05T18:08:44.241Z,15.85
2022-09-05T18:13:13.419Z,15.79
2022-09-05T18:17:35.534Z,15.69
2022-09-05T18:20:44.272Z,15.60
2022-09-05T18:24:39.525Z,15.51
2022-09-05T18:28:18.475Z,15.43
2022-09-05T18:31:43.492Z,15.35
2022-09-05T18:35:36.659Z,15.23
2022-09-05T18:39:22.758Z,15.17
2022-09-05T18:42:49.888Z,15.08
2022-09-05T18:46:41.597Z,15.00
2022-09-05T18:50:24.210Z,14.91
2022-09-05T18:54:20.518Z,14.84
2022-09-05T18:58:08.917Z,14.75
2022-09-05T19:01:43.954Z,14.68
2022-09-05T19:05:19.577Z,14.60
2022-09-05T19:08:57.711Z,14.52
2022-09-05T19:12:33.949Z,14.47
2022-09-05T19:16:44.021Z,14.38
2022-09-05T19:20:33.728Z,14.29
2022-09-05T19:24:02.718Z,14.21
2022-09-05T19:28:47.157Z,14.13
2022-09-05T19:36:52.226Z,14.05
2022-09-05T19:37:14.272Z,13.99
2022-09-05T19:41:24.353Z,13.92
2022-09-05T19:47:30.549Z,13.86
2022-09-05T19:47:36.016Z,13.79
2022-09-05T19:50:30.410Z,13.73
2022-09-05T19:54:05.069Z,13.65
2022-09-05T19:57:30.623Z,13.60
2022-09-05T20:01:18.541Z,13.55
2022-09-05T20:04:52.873Z,13.53
2022-09-05T20:08:33.178Z,13.47
2022-09-05T20:11:58.701Z,13.43
2022-09-05T20:15:37.497Z,13.39
2022-09-05T20:19:44.990Z,13.35
2022-09-05T20:23:28.363Z,13.30
2022-09-05T20:26:50.877Z,13.26
2022-09-05T20:30:32.613Z,13.22
2022-09-05T20:38:32.948Z,13.16
2022-09-05T20:43:27.111Z,13.03
2022-09-05T20:43:32.442Z,13.09
2022-09-05T20:47:30.080Z,12.98
2022-09-05T20:54:14.299Z,12.90
2022-09-05T20:54:17.180Z,12.85
2022-09-05T20:57:31.754Z,12.79
2022-09-05T21:01:32.691Z,12.76
2022-09-05T21:05:20.734Z,12.71
2022-09-05T21:09:28.730Z,12.66
2022-09-05T21:12:58.208Z,12.60
2022-09-05T21:16:30.634Z,12.55
2022-09-05T21:20:09.403Z,12.49
2022-09-05T21:23:40.956Z,12.44
2022-09-05T21:27:23.249Z,12.39
2022-09-05T21:30:56.546Z,12.35
2022-09-05T21:34:53.476Z,12.32
2022-09-05T21:38:18.569Z,12.27
2022-09-05T21:42:05.043Z,12.22
2022-09-05T21:47:49.210Z,12.16
2022-09-05T21:49:40.534Z,12.10
2022-09-05T21:59:13.600Z,12.03
2022-09-05T21:59:32.701Z,11.97
2022-09-05T22:01:08.064Z,11.90
2022-09-05T22:04:41.189Z,11.86
2022-09-05T22:08:14.522Z,11.81
2022-09-05T22:11:52.602Z,11.76
2022-09-05T22:15:47.731Z,11.70
2022-09-05T22:19:36.921Z,11.65
2022-09-05T22:23:01.361Z,11.57
2022-09-05T22:27:12.323Z,11.48
2022-09-05T22:30:35.794Z,11.41
2022-09-05T22:34:28.162Z,11.35
2022-09-05T22:37:59.256Z,11.28
2022-09-05T22:41:31.248Z,11.20
2022-09-05T22:45:22.955Z,11.13
2022-09-05T22:48:45.783Z,11.07
2022-09-05T22:52:22.491Z,11.01
2022-09-05T22:56:05.615Z,10.99
2022-09-05T22:59:35.946Z,10.98
2022-09-05T23:03:13.035Z,10.95
2022-09-05T23:07:09.055Z,10.91
2022-09-05T23:10:31.617Z,10.85
2022-09-05T23:14:07.716Z,10.79
2022-09-05T23:17:45.169Z,10.74
2022-09-05T23:21:21.029Z,10.68
2022-09-05T23:24:58.347Z,10.63
2022-09-05T23:28:36.623Z,10.57
2022-09-05T23:32:31.385Z,10.54
2022-09-05T23:35:58.399Z,10.50
2022-09-05T23:39:29.837Z,10.46
2022-09-05T23:43:25.709Z,10.41
2022-09-05T23:46:47.245Z,10.38
2022-09-05T23:50:25.587Z,10.36
2022-09-05T23:54:20.131Z,10.35
2022-09-05T23:57:42.881Z,10.38
